Billings, MT

9:24 AM MDT on September 23, 2014 (GMT -0600)
Downtown Billings | Change Station
CLOSE
Current Station
Personal Weather Station
Location: Billings, MT
Elevation: 3127 ft
Nearby Weather Stations

Elev 3127 ft 45.78 °N, 108.50 °W | Updated 9 minutes ago

Clear
Clear
59.7 °F
Feels Like 59.7 °F
N
2.9
Wind Variable Wind from SSW
Gusts 4.5 mph

Today
High -- | Low -- °F
--% Chance of Precip.
Yesterday
High -- | Low -- °F
Precip. -- in
7:02 AM 7:09 PM
Waning Crescent, 0% visible
Pressure 29.92 in
Visibility 10.0 miles
Clouds Few 8500 ft
Few 14000 ft
Dew Point 50 °F
Humidity 71%
Rainfall -999.00 in
Snow Depth 1 in , 0 in , 0 in
UV 1 out of 12
Pollen 4.90 out of 12
Air Quality Not available.
Flu Activity Not available.
METAR KBIL 231453Z 21012KT 10SM FEW085 FEW140 16/08 A2999 RMK AO2 SLP132 T01560083 53007

More Conditions Fewer Conditions

Pressure 29.92 in
Visibility 10.0 miles
Clouds Few 8500 ft
Few 14000 ft
Dew Point 50 °F
Humidity 71%
Rainfall -999.00 in
Snow Depth 1 in , 0 in , 0 in
UV 1 out of 12
Pollen 4.90 out of 12
Air Quality Not available.
Flu Activity Not available.
METAR KBIL 231453Z 21012KT 10SM FEW085 FEW140 16/08 A2999 RMK AO2 SLP132 T01560083 53007

More Conditions Fewer Conditions

10-Day Weather Forecast

Almanac

Astronomy

Sep. 23, 2014 Rise Set
Actual Time 7:02 AM MDT 7:09 PM MDT
Civil Twilight 6:32 AM MDT 7:39 PM MDT
Nautical Twilight 5:57 AM MDT 8:13 PM MDT
Astronomical Twilight 5:21 AM MDT 8:49 PM MDT
Moon 6:29 AM MDT 6:48 PM MDT
Length of Visible Light 13h 06m
Length of Day
12h 07m
Tomorrow will be 3m 12s shorter.
Waning Crescent, 0% of the Moon is Illuminated
Today
Waning Crescent
Sep 24
New
Oct 1
First Quarter
Oct 8
Full
Oct 15
Last Quarter

Today's Extremes

State Highs State Lows

Community

WunderPhotos

Upload Photos

1,755,725 photos uploaded!

Nearby

Snow Depth

Station Depth Elevation
Brackett Creek 1 in 7320 ft
Daisy Peak 0 in 7600 ft
Stuart Mountain 0 in 7400 ft
Short Creek 0 in 7000 ft
Badger Pass 1 in 6900 ft

Earthquake Activity

City Distance Mag. Time & Date
No recent earthquake activity has been reported nearby.
Minimum magnitude displayed is 2.5.

Coastal Water Temperatures

Place Temperature
No Stations Reporting

Nearby Weather Stations